Briefing drone pour Monnaie

Rechercher une autre localisation

Conditions de vol :


Nous sommes le : Jeudi 25 février 2021
Il est 04:15 UTC (05:15 LT)

Lever de soleil : 06:17 UTC (07:17 LT)
Coucher de soleil : 18:02 UTC (19:02 LT)

Météo

L'essentiel des conditions de vol

VIGILANCE MÉTÉO FRANCE - Indre-et-Loire (37)
Pas de vigilances particulieres
CARTE TEMSI
CARTES DES FRONTS
METAR de LFOT
LFOT 250400Z AUTO 14004KT CAVOK 08/05 Q1025 NOSIG

Date d'émission: 25/02/2021
Heure d'émission: 04:00 UTC
Vent: 140° pour 4 KT (7 km/h)
Visibilité horizontale: > 10 km
Plafond : Plafond et visibilité OK (CAVOK)
Température: 8 °C
Point de rosée: 5 °C
Humidité: 81%
Pression (QNH): 1025 hPa
Conditions: Pas de changement dans les 2 heures (NOSIG)
TAF de LFOT
LFOT 241700Z 2418/2518 18007KT CAVOK

Conditions prévues :

Heure d'émission : Bulletin éffectué le 24 à 18:00 UTC
Prévision : Valide du 24 a 18:00 UTC au 25 a 18:00 UTC
Vent : 180° pour 7 KT (13 km/h)
Visibilité : > 10 km
WEBCAM POUR MONNAIE

Réglementation

Voler en sécurité

CARTES AERONAUTIQUE 1/500.000
CARTES VAC (LFOT)
SUP AIP




Chargement des AIP...
NOTAM (MONNAIE + Terrain à proximité / FIR )




Chargement des NOTAMS...
CONTACT PREFECTURE 37
Indre-et-Loire (37) : pref-drones@indre-et-loire.gouv.fr


Avertissement : Les données mises à disposition sont indicatives. Oxygène Drone ne pourra être tenu responsable de dégâts causés aux biens et aux personnes.